sensor_id;sensor_type;location;lat;lon;timestamp;pressure;altitude;pressure_sealevel;temperature;humidity
51289;BME280;37372;52.294;5.152;2022-12-08T00:01:10;101130.91;;;2.71;100.00
51289;BME280;37372;52.294;5.152;2022-12-08T00:03:36;101117.78;;;2.68;100.00
51289;BME280;37372;52.294;5.152;2022-12-08T00:06:03;101117.78;;;2.68;100.00
51289;BME280;37372;52.294;5.152;2022-12-08T00:08:48;101115.28;;;2.63;100.00
51289;BME280;37372;52.294;5.152;2022-12-08T00:11:32;101099.34;;;2.59;100.00
51289;BME280;37372;52.294;5.152;2022-12-08T00:13:58;101096.41;;;2.52;100.00
51289;BME280;37372;52.294;5.152;2022-12-08T00:16:23;101096.75;;;2.51;100.00
51289;BME280;37372;52.294;5.152;2022-12-08T00:18:48;101095.94;;;2.50;100.00
51289;BME280;37372;52.294;5.152;2022-12-08T00:21:14;101080.84;;;2.48;100.00
51289;BME280;37372;52.294;5.152;2022-12-08T00:23:39;101084.06;;;2.50;100.00
51289;BME280;37372;52.294;5.152;2022-12-08T00:26:05;101076.56;;;2.50;100.00
51289;BME280;37372;52.294;5.152;2022-12-08T00:28:32;101071.03;;;2.50;100.00
51289;BME280;37372;52.294;5.152;2022-12-08T00:30:58;101067.47;;;2.50;100.00
51289;BME280;37372;52.294;5.152;2022-12-08T00:33:23;101075.31;;;2.48;100.00
51289;BME280;37372;52.294;5.152;2022-12-08T00:35:49;101065.75;;;2.45;100.00
51289;BME280;37372;52.294;5.152;2022-12-08T00:38:14;101057.97;;;2.51;100.00
51289;BME280;37372;52.294;5.152;2022-12-08T00:40:46;101055.66;;;2.53;100.00
51289;BME280;37372;52.294;5.152;2022-12-08T00:43:12;101045.72;;;2.52;100.00
51289;BME280;37372;52.294;5.152;2022-12-08T00:45:37;101042.16;;;2.51;100.00
51289;BME280;37372;52.294;5.152;2022-12-08T00:48:03;101055.22;;;2.51;100.00
51289;BME280;37372;52.294;5.152;2022-12-08T00:50:29;101042.53;;;2.50;100.00
51289;BME280;37372;52.294;5.152;2022-12-08T00:52:54;101039.66;;;2.46;100.00
51289;BME280;37372;52.294;5.152;2022-12-08T00:55:19;101029.50;;;2.50;100.00
51289;BME280;37372;52.294;5.152;2022-12-08T00:57:44;101034.56;;;2.48;100.00
51289;BME280;37372;52.294;5.152;2022-12-08T01:00:10;101026.81;;;2.54;100.00
51289;BME280;37372;52.294;5.152;2022-12-08T01:02:36;101042.69;;;2.57;100.00
51289;BME280;37372;52.294;5.152;2022-12-08T01:05:01;101044.13;;;2.67;100.00
51289;BME280;37372;52.294;5.152;2022-12-08T01:07:27;101042.63;;;2.69;100.00
51289;BME280;37372;52.294;5.152;2022-12-08T01:09:52;101034.69;;;2.68;100.00
51289;BME280;37372;52.294;5.152;2022-12-08T01:12:17;101036.00;;;2.58;100.00
51289;BME280;37372;52.294;5.152;2022-12-08T01:14:43;101034.03;;;2.58;100.00
51289;BME280;37372;52.294;5.152;2022-12-08T01:17:08;101029.69;;;2.57;100.00
51289;BME280;37372;52.294;5.152;2022-12-08T01:19:33;101026.44;;;2.55;100.00
51289;BME280;37372;52.294;5.152;2022-12-08T01:21:59;101020.13;;;2.55;100.00
51289;BME280;37372;52.294;5.152;2022-12-08T01:24:24;101021.78;;;2.59;100.00
51289;BME280;37372;52.294;5.152;2022-12-08T01:26:50;101030.66;;;2.65;100.00
51289;BME280;37372;52.294;5.152;2022-12-08T01:29:16;101021.97;;;2.67;100.00
51289;BME280;37372;52.294;5.152;2022-12-08T01:31:41;101025.94;;;2.66;100.00
51289;BME280;37372;52.294;5.152;2022-12-08T01:34:09;101023.59;;;2.68;100.00
51289;BME280;37372;52.294;5.152;2022-12-08T01:36:34;101019.94;;;2.64;100.00
51289;BME280;37372;52.294;5.152;2022-12-08T01:39:05;101026.25;;;2.64;100.00
51289;BME280;37372;52.294;5.152;2022-12-08T01:41:33;101023.41;;;2.60;100.00
51289;BME280;37372;52.294;5.152;2022-12-08T01:44:45;101026.91;;;2.57;100.00
51289;BME280;37372;52.294;5.152;2022-12-08T01:46:47;101020.91;;;2.55;100.00
51289;BME280;37372;52.294;5.152;2022-12-08T01:49:17;101024.03;;;2.54;100.00
51289;BME280;37372;52.294;5.152;2022-12-08T01:54:33;101026.53;;;2.43;100.00
51289;BME280;37372;52.294;5.152;2022-12-08T01:57:09;101021.78;;;2.44;100.00
51289;BME280;37372;52.294;5.152;2022-12-08T01:59:39;101016.63;;;2.42;100.00
51289;BME280;37372;52.294;5.152;2022-12-08T02:02:07;101015.78;;;2.42;100.00
51289;BME280;37372;52.294;5.152;2022-12-08T02:04:33;101012.69;;;2.43;100.00
51289;BME280;37372;52.294;5.152;2022-12-08T02:06:58;101004.44;;;2.47;100.00
51289;BME280;37372;52.294;5.152;2022-12-08T02:09:25;101006.16;;;2.51;100.00
51289;BME280;37372;52.294;5.152;2022-12-08T02:11:52;101015.38;;;2.55;100.00
51289;BME280;37372;52.294;5.152;2022-12-08T02:14:20;100999.22;;;2.57;100.00
51289;BME280;37372;52.294;5.152;2022-12-08T02:19:51;100989.28;;;2.56;100.00
51289;BME280;37372;52.294;5.152;2022-12-08T02:25:13;100983.94;;;2.64;100.00
51289;BME280;37372;52.294;5.152;2022-12-08T02:30:19;100986.44;;;2.69;100.00
51289;BME280;37372;52.294;5.152;2022-12-08T02:35:26;100984.81;;;2.68;100.00
51289;BME280;37372;52.294;5.152;2022-12-08T02:43:11;100999.03;;;2.66;100.00
51289;BME280;37372;52.294;5.152;2022-12-08T02:45:44;100997.06;;;2.67;100.00
51289;BME280;37372;52.294;5.152;2022-12-08T02:48:12;100991.88;;;2.65;100.00
51289;BME280;37372;52.294;5.152;2022-12-08T02:50:38;100977.66;;;2.67;100.00
51289;BME280;37372;52.294;5.152;2022-12-08T02:53:04;100959.00;;;2.64;100.00
51289;BME280;37372;52.294;5.152;2022-12-08T03:06:30;100941.06;;;2.57;100.00
51289;BME280;37372;52.294;5.152;2022-12-08T03:09:17;100943.44;;;2.59;100.00
51289;BME280;37372;52.294;5.152;2022-12-08T03:14:18;100933.34;;;2.67;100.00
51289;BME280;37372;52.294;5.152;2022-12-08T03:16:48;100923.00;;;2.64;100.00
51289;BME280;37372;52.294;5.152;2022-12-08T03:19:17;100922.91;;;2.60;100.00
51289;BME280;37372;52.294;5.152;2022-12-08T03:21:49;100914.22;;;2.61;100.00
51289;BME280;37372;52.294;5.152;2022-12-08T03:24:16;100906.03;;;2.65;100.00
51289;BME280;37372;52.294;5.152;2022-12-08T03:26:50;100920.75;;;2.69;100.00
51289;BME280;37372;52.294;5.152;2022-12-08T03:29:17;100916.38;;;2.68;100.00
51289;BME280;37372;52.294;5.152;2022-12-08T03:31:48;100929.78;;;2.66;100.00
51289;BME280;37372;52.294;5.152;2022-12-08T03:34:16;100933.63;;;2.61;100.00
51289;BME280;37372;52.294;5.152;2022-12-08T03:36:43;100932.47;;;2.63;100.00
51289;BME280;37372;52.294;5.152;2022-12-08T03:39:09;100929.97;;;2.57;100.00
51289;BME280;37372;52.294;5.152;2022-12-08T03:41:34;100916.81;;;2.54;100.00
51289;BME280;37372;52.294;5.152;2022-12-08T03:43:59;100914.06;;;2.54;100.00
51289;BME280;37372;52.294;5.152;2022-12-08T03:46:27;100906.19;;;2.56;100.00
51289;BME280;37372;52.294;5.152;2022-12-08T03:48:53;100892.06;;;2.61;100.00
51289;BME280;37372;52.294;5.152;2022-12-08T03:51:18;100891.22;;;2.57;100.00
51289;BME280;37372;52.294;5.152;2022-12-08T03:53:44;100885.84;;;2.65;100.00
51289;BME280;37372;52.294;5.152;2022-12-08T03:58:47;100891.38;;;2.65;100.00
51289;BME280;37372;52.294;5.152;2022-12-08T04:01:13;100893.69;;;2.63;100.00
51289;BME280;37372;52.294;5.152;2022-12-08T04:03:38;100896.47;;;2.63;100.00
51289;BME280;37372;52.294;5.152;2022-12-08T04:06:04;100890.56;;;2.64;100.00
51289;BME280;37372;52.294;5.152;2022-12-08T04:08:30;100887.44;;;2.66;100.00
51289;BME280;37372;52.294;5.152;2022-12-08T04:10:55;100882.69;;;2.66;100.00
51289;BME280;37372;52.294;5.152;2022-12-08T04:13:21;100881.16;;;2.69;100.00
51289;BME280;37372;52.294;5.152;2022-12-08T04:15:47;100873.31;;;2.71;100.00
51289;BME280;37372;52.294;5.152;2022-12-08T04:18:13;100873.31;;;2.71;100.00
51289;BME280;37372;52.294;5.152;2022-12-08T04:20:40;100872.13;;;2.72;100.00
51289;BME280;37372;52.294;5.152;2022-12-08T04:23:06;100878.13;;;2.74;100.00
51289;BME280;37372;52.294;5.152;2022-12-08T04:25:32;100887.59;;;2.73;100.00
51289;BME280;37372;52.294;5.152;2022-12-08T04:27:58;100891.09;;;2.70;100.00
51289;BME280;37372;52.294;5.152;2022-12-08T04:30:23;100897.06;;;2.72;100.00
51289;BME280;37372;52.294;5.152;2022-12-08T04:32:48;100901.00;;;2.71;100.00
51289;BME280;37372;52.294;5.152;2022-12-08T04:35:14;100896.63;;;2.70;100.00
51289;BME280;37372;52.294;5.152;2022-12-08T04:37:39;100904.22;;;2.73;100.00
51289;BME280;37372;52.294;5.152;2022-12-08T04:40:05;100893.59;;;2.75;100.00
51289;BME280;37372;52.294;5.152;2022-12-08T04:42:30;100888.47;;;2.77;100.00
51289;BME280;37372;52.294;5.152;2022-12-08T04:44:56;100890.81;;;2.75;100.00
51289;BME280;37372;52.294;5.152;2022-12-08T04:47:21;100884.44;;;2.74;100.00
51289;BME280;37372;52.294;5.152;2022-12-08T04:49:47;100885.69;;;2.77;100.00
51289;BME280;37372;52.294;5.152;2022-12-08T04:52:12;100884.44;;;2.74;100.00
51289;BME280;37372;52.294;5.152;2022-12-08T04:54:37;100878.84;;;2.71;100.00
51289;BME280;37372;52.294;5.152;2022-12-08T04:57:03;100887.94;;;2.71;100.00
51289;BME280;37372;52.294;5.152;2022-12-08T04:59:29;100886.72;;;2.69;100.00
51289;BME280;37372;52.294;5.152;2022-12-08T05:01:54;100894.16;;;2.65;100.00
51289;BME280;37372;52.294;5.152;2022-12-08T05:04:20;100890.94;;;2.63;100.00
51289;BME280;37372;52.294;5.152;2022-12-08T05:06:45;100879.31;;;2.57;100.00
51289;BME280;37372;52.294;5.152;2022-12-08T05:09:10;100888.72;;;2.52;100.00
51289;BME280;37372;52.294;5.152;2022-12-08T05:11:36;100868.16;;;2.53;100.00
51289;BME280;37372;52.294;5.152;2022-12-08T05:14:08;100880.03;;;2.54;100.00
51289;BME280;37372;52.294;5.152;2022-12-08T05:16:35;100872.38;;;2.47;100.00
51289;BME280;37372;52.294;5.152;2022-12-08T05:19:01;100870.69;;;2.43;100.00
51289;BME280;37372;52.294;5.152;2022-12-08T05:21:26;100867.97;;;2.46;100.00
51289;BME280;37372;52.294;5.152;2022-12-08T05:23:52;100874.88;;;2.52;100.00
51289;BME280;37372;52.294;5.152;2022-12-08T05:26:17;100868.88;;;2.50;100.00
51289;BME280;37372;52.294;5.152;2022-12-08T05:28:42;100871.38;;;2.55;100.00
51289;BME280;37372;52.294;5.152;2022-12-08T05:31:08;100861.38;;;2.51;100.00
51289;BME280;37372;52.294;5.152;2022-12-08T05:33:34;100864.94;;;2.51;100.00
51289;BME280;37372;52.294;5.152;2022-12-08T05:35:59;100857.81;;;2.50;100.00
51289;BME280;37372;52.294;5.152;2022-12-08T05:38:24;100853.06;;;2.51;100.00
51289;BME280;37372;52.294;5.152;2022-12-08T05:40:50;100850.63;;;2.49;100.00
51289;BME280;37372;52.294;5.152;2022-12-08T05:43:15;100845.94;;;2.50;100.00
51289;BME280;37372;52.294;5.152;2022-12-08T05:45:40;100851.75;;;2.45;100.00
51289;BME280;37372;52.294;5.152;2022-12-08T05:48:06;100856.09;;;2.46;100.00
51289;BME280;37372;52.294;5.152;2022-12-08T05:50:31;100852.53;;;2.45;100.00
51289;BME280;37372;52.294;5.152;2022-12-08T05:52:57;100847.72;;;2.42;100.00
51289;BME280;37372;52.294;5.152;2022-12-08T05:55:22;100855.59;;;2.40;100.00
51289;BME280;37372;52.294;5.152;2022-12-08T05:57:47;100841.75;;;2.40;100.00
51289;BME280;37372;52.294;5.152;2022-12-08T06:00:13;100848.88;;;2.41;100.00
51289;BME280;37372;52.294;5.152;2022-12-08T06:02:38;100850.41;;;2.38;100.00
51289;BME280;37372;52.294;5.152;2022-12-08T06:05:04;100860.31;;;2.39;100.00
51289;BME280;37372;52.294;5.152;2022-12-08T06:07:29;100854.13;;;2.46;100.00
51289;BME280;37372;52.294;5.152;2022-12-08T06:09:55;100854.84;;;2.43;100.00
51289;BME280;37372;52.294;5.152;2022-12-08T06:12:20;100851.91;;;2.36;100.00
51289;BME280;37372;52.294;5.152;2022-12-08T06:14:45;100848.16;;;2.44;100.00
51289;BME280;37372;52.294;5.152;2022-12-08T06:17:11;100842.38;;;2.33;100.00
51289;BME280;37372;52.294;5.152;2022-12-08T06:19:36;100843.25;;;2.37;100.00
51289;BME280;37372;52.294;5.152;2022-12-08T06:22:01;100843.44;;;2.29;100.00
51289;BME280;37372;52.294;5.152;2022-12-08T06:24:27;100843.44;;;2.29;100.00
51289;BME280;37372;52.294;5.152;2022-12-08T06:26:52;100846.38;;;2.36;100.00
51289;BME280;37372;52.294;5.152;2022-12-08T06:29:18;100839.16;;;2.31;100.00
51289;BME280;37372;52.294;5.152;2022-12-08T06:31:43;100844.78;;;2.35;100.00
51289;BME280;37372;52.294;5.152;2022-12-08T06:34:08;100836.38;;;2.31;100.00
51289;BME280;37372;52.294;5.152;2022-12-08T06:36:34;100835.13;;;2.29;100.00
51289;BME280;37372;52.294;5.152;2022-12-08T06:38:59;100833.25;;;2.33;100.00
51289;BME280;37372;52.294;5.152;2022-12-08T06:41:25;100840.59;;;2.25;100.00
51289;BME280;37372;52.294;5.152;2022-12-08T06:43:51;100837.31;;;2.20;100.00
51289;BME280;37372;52.294;5.152;2022-12-08T06:46:18;100839.34;;;2.23;100.00
51289;BME280;37372;52.294;5.152;2022-12-08T06:48:44;100838.91;;;2.21;100.00
51289;BME280;37372;52.294;5.152;2022-12-08T06:51:14;100837.47;;;2.27;100.00
51289;BME280;37372;52.294;5.152;2022-12-08T06:53:41;100843.47;;;2.13;100.00
51289;BME280;37372;52.294;5.152;2022-12-08T06:56:07;100839.63;;;2.17;100.00
51289;BME280;37372;52.294;5.152;2022-12-08T06:58:33;100851.88;;;2.16;100.00
51289;BME280;37372;52.294;5.152;2022-12-08T07:01:07;100843.97;;;2.18;100.00
51289;BME280;37372;52.294;5.152;2022-12-08T07:03:32;100845.94;;;2.18;100.00
51289;BME280;37372;52.294;5.152;2022-12-08T07:05:58;100845.88;;;2.14;100.00
51289;BME280;37372;52.294;5.152;2022-12-08T07:08:23;100842.38;;;2.17;100.00
51289;BME280;37372;52.294;5.152;2022-12-08T07:10:49;100856.50;;;2.12;100.00
51289;BME280;37372;52.294;5.152;2022-12-08T07:13:14;100853.38;;;2.14;100.00
51289;BME280;37372;52.294;5.152;2022-12-08T07:15:39;100855.16;;;2.06;100.00
51289;BME280;37372;52.294;5.152;2022-12-08T07:18:05;100867.13;;;2.10;100.00
51289;BME280;37372;52.294;5.152;2022-12-08T07:20:30;100864.78;;;2.12;100.00
51289;BME280;37372;52.294;5.152;2022-12-08T07:22:56;100859.88;;;2.06;100.00
51289;BME280;37372;52.294;5.152;2022-12-08T07:25:22;100858.47;;;2.12;100.00
51289;BME280;37372;52.294;5.152;2022-12-08T07:27:47;100853.53;;;2.05;100.00
51289;BME280;37372;52.294;5.152;2022-12-08T07:30:15;100860.44;;;2.11;100.00
51289;BME280;37372;52.294;5.152;2022-12-08T07:32:41;100864.63;;;2.05;100.00
51289;BME280;37372;52.294;5.152;2022-12-08T07:35:07;100866.50;;;2.01;100.00
51289;BME280;37372;52.294;5.152;2022-12-08T07:37:34;100871.94;;;1.98;100.00
51289;BME280;37372;52.294;5.152;2022-12-08T07:40:00;100871.59;;;1.99;100.00
51289;BME280;37372;52.294;5.152;2022-12-08T07:42:25;100865.88;;;1.92;100.00
51289;BME280;37372;52.294;5.152;2022-12-08T07:44:51;100866.59;;;2.05;100.00
51289;BME280;37372;52.294;5.152;2022-12-08T07:47:16;100871.06;;;2.09;100.00
51289;BME280;37372;52.294;5.152;2022-12-08T07:49:42;100873.28;;;2.04;100.00
51289;BME280;37372;52.294;5.152;2022-12-08T07:52:07;100870.25;;;2.09;100.00
51289;BME280;37372;52.294;5.152;2022-12-08T07:54:32;100877.38;;;2.10;100.00
51289;BME280;37372;52.294;5.152;2022-12-08T07:56:58;100865.06;;;2.07;100.00
51289;BME280;37372;52.294;5.152;2022-12-08T07:59:24;100874.28;;;2.11;100.00
51289;BME280;37372;52.294;5.152;2022-12-08T08:01:49;100862.03;;;2.12;100.00
51289;BME280;37372;52.294;5.152;2022-12-08T08:04:16;100869.78;;;2.23;100.00
51289;BME280;37372;52.294;5.152;2022-12-08T08:06:42;100868.09;;;2.18;100.00
51289;BME280;37372;52.294;5.152;2022-12-08T08:09:07;100869.72;;;2.19;100.00
51289;BME280;37372;52.294;5.152;2022-12-08T08:11:34;100857.03;;;2.18;100.00
51289;BME280;37372;52.294;5.152;2022-12-08T08:13:59;100850.69;;;2.17;100.00
51289;BME280;37372;52.294;5.152;2022-12-08T08:16:24;100863.34;;;2.18;100.00
51289;BME280;37372;52.294;5.152;2022-12-08T08:18:50;100858.44;;;2.28;100.00
51289;BME280;37372;52.294;5.152;2022-12-08T08:21:16;100856.31;;;2.21;100.00
51289;BME280;37372;52.294;5.152;2022-12-08T08:23:42;100849.25;;;2.24;100.00
51289;BME280;37372;52.294;5.152;2022-12-08T08:26:07;100842.84;;;2.20;100.00
51289;BME280;37372;52.294;5.152;2022-12-08T08:28:33;100845.78;;;2.27;100.00
51289;BME280;37372;52.294;5.152;2022-12-08T08:30:59;100851.75;;;2.29;100.00
51289;BME280;37372;52.294;5.152;2022-12-08T08:33:24;100856.41;;;2.25;100.00
51289;BME280;37372;52.294;5.152;2022-12-08T08:35:50;100849.81;;;2.29;100.00
51289;BME280;37372;52.294;5.152;2022-12-08T08:38:16;100851.38;;;2.46;100.00
51289;BME280;37372;52.294;5.152;2022-12-08T08:40:41;100861.13;;;2.40;100.00
51289;BME280;37372;52.294;5.152;2022-12-08T08:43:07;100863.16;;;2.43;100.00
51289;BME280;37372;52.294;5.152;2022-12-08T08:45:33;100860.75;;;2.42;100.00
51289;BME280;37372;52.294;5.152;2022-12-08T08:48:01;100862.38;;;2.43;100.00
51289;BME280;37372;52.294;5.152;2022-12-08T08:50:29;100879.31;;;2.41;100.00
51289;BME280;37372;52.294;5.152;2022-12-08T08:52:55;100867.09;;;2.42;100.00
51289;BME280;37372;52.294;5.152;2022-12-08T08:55:20;100871.81;;;2.42;100.00
51289;BME280;37372;52.294;5.152;2022-12-08T08:57:45;100872.78;;;2.49;100.00
51289;BME280;37372;52.294;5.152;2022-12-08T09:00:11;100870.47;;;2.51;100.00
51289;BME280;37372;52.294;5.152;2022-12-08T09:02:37;100867.25;;;2.49;100.00
51289;BME280;37372;52.294;5.152;2022-12-08T09:05:04;100870.13;;;2.53;100.00
51289;BME280;37372;52.294;5.152;2022-12-08T09:07:30;100868.31;;;2.60;100.00
51289;BME280;37372;52.294;5.152;2022-12-08T09:09:55;100865.38;;;2.53;100.00
51289;BME280;37372;52.294;5.152;2022-12-08T09:12:21;100865.72;;;2.52;100.00
51289;BME280;37372;52.294;5.152;2022-12-08T09:14:46;100868.16;;;2.53;100.00
51289;BME280;37372;52.294;5.152;2022-12-08T09:17:12;100875.28;;;2.54;100.00
51289;BME280;37372;52.294;5.152;2022-12-08T09:19:37;100878.94;;;2.58;100.00
51289;BME280;37372;52.294;5.152;2022-12-08T09:22:04;100876.34;;;2.66;100.00
51289;BME280;37372;52.294;5.152;2022-12-08T09:24:29;100879.41;;;2.60;100.00
51289;BME280;37372;52.294;5.152;2022-12-08T09:26:55;100876.00;;;2.51;100.00
51289;BME280;37372;52.294;5.152;2022-12-08T09:29:20;100876.91;;;2.55;100.00
51289;BME280;37372;52.294;5.152;2022-12-08T09:31:46;100881.53;;;2.51;100.00
51289;BME280;37372;52.294;5.152;2022-12-08T09:34:11;100889.69;;;2.44;100.00
51289;BME280;37372;52.294;5.152;2022-12-08T09:36:37;100886.00;;;2.56;100.00
51289;BME280;37372;52.294;5.152;2022-12-08T09:39:02;100889.75;;;2.64;100.00
51289;BME280;37372;52.294;5.152;2022-12-08T09:41:36;100886.09;;;2.59;100.00
51289;BME280;37372;52.294;5.152;2022-12-08T09:44:42;100879.41;;;2.60;100.00
51289;BME280;37372;52.294;5.152;2022-12-08T09:47:25;100883.16;;;2.52;100.00
51289;BME280;37372;52.294;5.152;2022-12-08T09:52:27;100880.28;;;2.65;100.00
51289;BME280;37372;52.294;5.152;2022-12-08T09:54:57;100876.19;;;2.58;100.00
51289;BME280;37372;52.294;5.152;2022-12-08T09:57:24;100881.38;;;2.60;100.00
51289;BME280;37372;52.294;5.152;2022-12-08T09:59:57;100877.94;;;2.67;100.00
51289;BME280;37372;52.294;5.152;2022-12-08T10:02:26;100879.06;;;2.62;100.00
51289;BME280;37372;52.294;5.152;2022-12-08T10:04:56;100886.97;;;2.64;100.00
51289;BME280;37372;52.294;5.152;2022-12-08T10:13:05;100872.50;;;2.70;100.00
51289;BME280;37372;52.294;5.152;2022-12-08T10:15:39;100876.69;;;2.80;100.00
51289;BME280;37372;52.294;5.152;2022-12-08T10:18:17;100869.97;;;2.81;100.00
51289;BME280;37372;52.294;5.152;2022-12-08T10:20:45;100861.09;;;2.91;100.00
51289;BME280;37372;52.294;5.152;2022-12-08T10:25:43;100857.81;;;2.86;100.00
51289;BME280;37372;52.294;5.152;2022-12-08T10:28:10;100860.34;;;2.75;100.00
51289;BME280;37372;52.294;5.152;2022-12-08T10:30:36;100862.94;;;2.68;100.00
51289;BME280;37372;52.294;5.152;2022-12-08T10:33:02;100863.34;;;2.50;100.00
51289;BME280;37372;52.294;5.152;2022-12-08T10:35:49;100848.66;;;2.66;100.00
51289;BME280;37372;52.294;5.152;2022-12-08T10:38:38;100841.06;;;2.63;100.00
51289;BME280;37372;52.294;5.152;2022-12-08T10:43:37;100835.53;;;2.47;100.00
51289;BME280;37372;52.294;5.152;2022-12-08T10:46:12;100830.28;;;2.57;100.00
51289;BME280;37372;52.294;5.152;2022-12-08T10:48:46;100830.00;;;2.63;100.00
51289;BME280;37372;52.294;5.152;2022-12-08T10:51:22;100822.56;;;2.67;100.00
51289;BME280;37372;52.294;5.152;2022-12-08T10:53:47;100823.44;;;2.71;100.00
51289;BME280;37372;52.294;5.152;2022-12-08T10:56:15;100832.19;;;2.73;100.00
51289;BME280;37372;52.294;5.152;2022-12-08T10:58:43;100831.34;;;2.53;100.00
51289;BME280;37372;52.294;5.152;2022-12-08T11:01:25;100824.41;;;2.43;100.00
51289;BME280;37372;52.294;5.152;2022-12-08T11:04:02;100818.53;;;2.64;100.00
51289;BME280;37372;52.294;5.152;2022-12-08T11:06:36;100819.28;;;2.61;100.00
51289;BME280;37372;52.294;5.152;2022-12-08T11:09:28;100805.78;;;2.59;100.00
51289;BME280;37372;52.294;5.152;2022-12-08T11:12:00;100810.44;;;2.55;100.00
51289;BME280;37372;52.294;5.152;2022-12-08T11:17:10;100798.00;;;2.65;100.00
51289;BME280;37372;52.294;5.152;2022-12-08T11:19:45;100799.44;;;2.59;100.00
51289;BME280;37372;52.294;5.152;2022-12-08T11:24:55;100810.69;;;2.66;100.00
51289;BME280;37372;52.294;5.152;2022-12-08T11:27:21;100802.75;;;2.65;100.00
51289;BME280;37372;52.294;5.152;2022-12-08T11:29:46;100793.91;;;2.59;100.00
51289;BME280;37372;52.294;5.152;2022-12-08T11:32:12;100796.31;;;2.60;100.00
51289;BME280;37372;52.294;5.152;2022-12-08T11:34:48;100794.50;;;2.68;100.00
51289;BME280;37372;52.294;5.152;2022-12-08T11:37:30;100791.91;;;2.59;100.00
51289;BME280;37372;52.294;5.152;2022-12-08T11:39:59;100793.19;;;2.62;100.00
51289;BME280;37372;52.294;5.152;2022-12-08T11:42:37;100793.72;;;2.68;100.00
51289;BME280;37372;52.294;5.152;2022-12-08T11:45:10;100796.63;;;2.75;100.00
51289;BME280;37372;52.294;5.152;2022-12-08T11:47:48;100795.59;;;2.64;100.00
51289;BME280;37372;52.294;5.152;2022-12-08T11:50:27;100788.75;;;2.77;100.00
51289;BME280;37372;52.294;5.152;2022-12-08T11:52:54;100790.44;;;2.81;100.00
51289;BME280;37372;52.294;5.152;2022-12-08T11:58:10;100785.19;;;2.76;100.00
51289;BME280;37372;52.294;5.152;2022-12-08T12:00:38;100780.00;;;2.75;100.00
51289;BME280;37372;52.294;5.152;2022-12-08T12:03:12;100773.53;;;2.67;100.00
51289;BME280;37372;52.294;5.152;2022-12-08T12:06:06;100776.66;;;2.66;100.00
51289;BME280;37372;52.294;5.152;2022-12-08T12:19:21;100771.91;;;2.66;100.00
51289;BME280;37372;52.294;5.152;2022-12-08T12:21:51;100764.69;;;2.61;100.00
51289;BME280;37372;52.294;5.152;2022-12-08T12:24:22;100764.38;;;2.67;100.00
51289;BME280;37372;52.294;5.152;2022-12-08T12:27:01;100762.81;;;2.85;100.00
51289;BME280;37372;52.294;5.152;2022-12-08T12:29:32;100764.41;;;2.86;100.00
51289;BME280;37372;52.294;5.152;2022-12-08T12:32:03;100761.94;;;3.00;100.00
51289;BME280;37372;52.294;5.152;2022-12-08T12:34:45;100766.44;;;2.89;100.00
51289;BME280;37372;52.294;5.152;2022-12-08T12:37:14;100771.09;;;3.04;100.00
51289;BME280;37372;52.294;5.152;2022-12-08T12:40:02;100768.81;;;3.10;100.00
51289;BME280;37372;52.294;5.152;2022-12-08T12:42:41;100766.59;;;3.16;100.00
51289;BME280;37372;52.294;5.152;2022-12-08T12:47:47;100762.34;;;3.02;100.00
51289;BME280;37372;52.294;5.152;2022-12-08T12:52:59;100769.06;;;2.82;100.00
51289;BME280;37372;52.294;5.152;2022-12-08T12:55:51;100767.31;;;2.74;100.00
51289;BME280;37372;52.294;5.152;2022-12-08T12:58:37;100778.22;;;2.67;100.00
51289;BME280;37372;52.294;5.152;2022-12-08T13:03:42;100772.28;;;2.84;100.00
51289;BME280;37372;52.294;5.152;2022-12-08T13:06:12;100766.88;;;2.91;100.00
51289;BME280;37372;52.294;5.152;2022-12-08T13:08:41;100763.81;;;2.96;100.00
51289;BME280;37372;52.294;5.152;2022-12-08T13:11:14;100764.03;;;3.07;100.00
51289;BME280;37372;52.294;5.152;2022-12-08T13:14:02;100767.38;;;3.16;100.00
51289;BME280;37372;52.294;5.152;2022-12-08T13:16:32;100763.31;;;3.33;100.00
51289;BME280;37372;52.294;5.152;2022-12-08T13:18:59;100753.59;;;3.43;100.00
51289;BME280;37372;52.294;5.152;2022-12-08T13:21:36;100753.69;;;3.46;100.00
51289;BME280;37372;52.294;5.152;2022-12-08T13:26:47;100752.50;;;3.47;100.00
51289;BME280;37372;52.294;5.152;2022-12-08T13:29:25;100749.69;;;3.67;100.00
51289;BME280;37372;52.294;5.152;2022-12-08T13:31:54;100765.38;;;3.82;100.00
51289;BME280;37372;52.294;5.152;2022-12-08T13:34:40;100754.47;;;3.70;100.00
51289;BME280;37372;52.294;5.152;2022-12-08T13:42:17;100750.28;;;3.57;100.00
51289;BME280;37372;52.294;5.152;2022-12-08T13:44:47;100744.97;;;3.48;100.00
51289;BME280;37372;52.294;5.152;2022-12-08T13:47:21;100745.66;;;3.41;100.00
51289;BME280;37372;52.294;5.152;2022-12-08T13:49:53;100738.38;;;3.33;100.00
51289;BME280;37372;52.294;5.152;2022-12-08T13:52:35;100738.38;;;3.33;100.00
51289;BME280;37372;52.294;5.152;2022-12-08T13:55:02;100731.84;;;3.22;100.00
51289;BME280;37372;52.294;5.152;2022-12-08T13:57:31;100731.09;;;3.25;100.00
51289;BME280;37372;52.294;5.152;2022-12-08T14:00:06;100728.94;;;3.38;100.00
51289;BME280;37372;52.294;5.152;2022-12-08T14:02:33;100729.03;;;3.41;100.00
51289;BME280;37372;52.294;5.152;2022-12-08T14:05:00;100729.13;;;3.48;100.00
51289;BME280;37372;52.294;5.152;2022-12-08T14:07:26;100730.63;;;3.42;100.00
51289;BME280;37372;52.294;5.152;2022-12-08T14:09:51;100731.38;;;3.39;100.00
51289;BME280;37372;52.294;5.152;2022-12-08T14:12:22;100729.34;;;3.36;100.00
51289;BME280;37372;52.294;5.152;2022-12-08T14:14:56;100737.34;;;3.41;100.00
51289;BME280;37372;52.294;5.152;2022-12-08T14:17:23;100735.38;;;3.42;100.00
51289;BME280;37372;52.294;5.152;2022-12-08T14:22:38;100736.50;;;3.18;100.00